createdAt,value
2023-04-09T00:00:26.053Z,23.39
2023-04-09T00:01:27.965Z,22.70
2023-04-09T00:02:24.681Z,23.60
2023-04-09T00:03:24.631Z,24.60
2023-04-09T00:04:24.569Z,22.5
2023-04-09T00:05:24.879Z,21.10
2023-04-09T00:06:23.832Z,24.29
2023-04-09T00:07:24.319Z,23.5
2023-04-09T00:08:24.383Z,21.5
2023-04-09T00:09:24.181Z,22
2023-04-09T00:10:24.588Z,20.79
2023-04-09T00:11:24.738Z,20.89
2023-04-09T00:12:24.184Z,21.60
2023-04-09T00:13:31.944Z,22.5
2023-04-09T00:14:24.173Z,21.60
2023-04-09T00:15:30.736Z,23.5
2023-04-09T00:16:23.810Z,21.60
2023-04-09T00:17:24.164Z,23.60
2023-04-09T00:18:24.038Z,20.60
2023-04-09T00:19:24.296Z,22.70
2023-04-09T00:20:24.283Z,23.89
2023-04-09T00:22:24.035Z,24.29
2023-04-09T00:23:24.400Z,23.10
2023-04-09T00:24:24.443Z,23.70
2023-04-09T00:25:24.489Z,24.39
2023-04-09T00:26:24.456Z,25.60
2023-04-09T00:27:24.259Z,23.60
2023-04-09T00:29:24.191Z,24.70
2023-04-09T00:30:24.604Z,25.70
2023-04-09T00:31:23.953Z,25.5
2023-04-09T00:32:24.250Z,27.10
2023-04-09T00:33:23.508Z,25.60
2023-04-09T00:34:24.713Z,25
2023-04-09T00:35:24.298Z,24.89
2023-04-09T00:36:27.013Z,24.29
2023-04-09T00:37:24.172Z,24.5
2023-04-09T00:38:23.924Z,25.79
2023-04-09T00:39:24.249Z,26.70
2023-04-09T00:40:24.284Z,25
2023-04-09T00:41:42.946Z,23
2023-04-09T00:42:24.710Z,24.10
2023-04-09T00:43:24.033Z,24.29
2023-04-09T00:44:24.452Z,24
2023-04-09T00:45:24.252Z,25.10
2023-04-09T00:46:24.732Z,23.39
2023-04-09T00:47:24.723Z,25.10
2023-04-09T00:48:24.175Z,24.60
2023-04-09T00:49:24.250Z,25.10
2023-04-09T00:50:24.262Z,24.70
2023-04-09T00:51:24.798Z,23.79
2023-04-09T00:52:24.676Z,23.39
2023-04-09T00:53:23.929Z,23
2023-04-09T00:54:24.308Z,25.29
2023-04-09T00:55:24.050Z,23.39
2023-04-09T00:56:24.265Z,23.5
2023-04-09T00:57:24.191Z,25.60
2023-04-09T00:58:23.802Z,26.10
2023-04-09T00:59:24.450Z,25.5
2023-04-09T01:00:25.089Z,24.39
2023-04-09T01:01:24.031Z,24.5
2023-04-09T01:02:24.628Z,24.20
2023-04-09T01:03:24.787Z,23.60
2023-04-09T01:04:24.166Z,24.70
2023-04-09T01:05:24.477Z,25.10
2023-04-09T01:06:24.349Z,22.79
2023-04-09T01:07:24.496Z,24.39
2023-04-09T01:08:25.847Z,24.70
2023-04-09T01:09:24.224Z,23.39
2023-04-09T01:10:24.180Z,24.20
2023-04-09T01:12:24.356Z,24.70
2023-04-09T01:13:24.061Z,26
2023-04-09T01:14:24.728Z,25.60
2023-04-09T01:15:24.402Z,25.10
2023-04-09T01:16:24.162Z,25.79
2023-04-09T01:17:24.628Z,26.39
2023-04-09T01:18:24.791Z,28.89
2023-04-09T01:19:24.152Z,26.5
2023-04-09T01:20:24.281Z,26
2023-04-09T01:21:24.032Z,26.39
2023-04-09T01:22:24.396Z,26.29
2023-04-09T01:23:24.927Z,26.20
2023-04-09T01:24:24.182Z,25.5
2023-04-09T01:25:24.767Z,25.39
2023-04-09T01:26:24.351Z,24.39
2023-04-09T01:27:23.970Z,25.10
2023-04-09T01:28:24.408Z,24.79
2023-04-09T01:29:24.117Z,24.5
2023-04-09T01:30:24.621Z,25.10
2023-04-09T01:31:24.523Z,26.39
2023-04-09T01:32:24.718Z,25.5
2023-04-09T01:33:23.935Z,24.20
2023-04-09T01:35:24.186Z,24.5
2023-04-09T01:36:24.527Z,24.79
2023-04-09T01:37:24.554Z,24.89
2023-04-09T01:38:24.852Z,24.5
2023-04-09T01:39:24.755Z,24.20
2023-04-09T01:40:25.296Z,25.60
2023-04-09T01:41:24.263Z,22.70
2023-04-09T01:42:24.685Z,25.60
2023-04-09T01:43:24.506Z,24.60
2023-04-09T01:44:24.556Z,22.10
2023-04-09T01:45:24.830Z,24.29
2023-04-09T01:46:24.543Z,24.70
2023-04-09T01:47:24.243Z,25.79
2023-04-09T01:48:24.452Z,25.39
2023-04-09T01:49:23.907Z,25
2023-04-09T01:51:23.764Z,25.89
2023-04-09T01:52:24.304Z,26.20
2023-04-09T01:53:24.201Z,22.39
2023-04-09T01:54:23.808Z,25.20
2023-04-09T01:55:24.261Z,24.89
2023-04-09T01:56:25.117Z,25
2023-04-09T01:59:24.758Z,25.20
2023-04-09T02:00:25.822Z,24.29
2023-04-09T02:01:23.962Z,25
2023-04-09T02:02:23.899Z,24.89
2023-04-09T02:03:24.129Z,25
2023-04-09T02:04:23.591Z,25.20
2023-04-09T02:05:24.178Z,25.89
2023-04-09T02:06:24.497Z,24.5
2023-04-09T02:07:24.527Z,25.60
2023-04-09T02:08:24.164Z,23.70
2023-04-09T02:09:25.066Z,24.5
2023-04-09T02:10:24.002Z,25
2023-04-09T02:11:23.557Z,26.20
2023-04-09T02:12:24.317Z,25.10
2023-04-09T02:13:24.155Z,27.70
2023-04-09T02:14:24.295Z,23.29
2023-04-09T02:15:24.884Z,23.10
2023-04-09T02:16:23.576Z,25.10
2023-04-09T02:17:23.863Z,24.29
2023-04-09T02:18:24.531Z,24.10
2023-04-09T02:19:24.337Z,24.60
2023-04-09T02:20:24.834Z,25.29
2023-04-09T02:21:24.743Z,24.60
2023-04-09T02:22:24.427Z,24.79
2023-04-09T02:23:24.720Z,25.29
2023-04-09T02:24:24.477Z,24
2023-04-09T02:25:24.523Z,23.20
2023-04-09T02:26:24.195Z,24
2023-04-09T02:27:24.162Z,25
2023-04-09T02:28:23.977Z,23.29
2023-04-09T02:29:23.855Z,24.70
2023-04-09T02:30:24.959Z,24.60
2023-04-09T02:31:24.086Z,24.29
2023-04-09T02:32:24.220Z,23.5
2023-04-09T02:33:24.194Z,25.20
2023-04-09T02:34:24.337Z,23.5
2023-04-09T02:35:23.863Z,24.10
2023-04-09T02:36:29.508Z,24.5
2023-04-09T02:37:23.989Z,23.5
2023-04-09T02:38:24.436Z,25.10
2023-04-09T02:39:24.547Z,24
2023-04-09T02:40:25.084Z,25.79
2023-04-09T02:41:24.609Z,23.39
2023-04-09T02:42:24.795Z,23.89
2023-04-09T02:43:24.117Z,26
2023-04-09T02:44:32.036Z,28.10
2023-04-09T02:45:24.648Z,26.60
2023-04-09T02:46:24.960Z,27.29
2023-04-09T02:47:24.132Z,28.70
2023-04-09T02:48:24.015Z,33.5
2023-04-09T02:49:24.568Z,32.79
2023-04-09T02:50:24.466Z,31.5
2023-04-09T02:51:23.851Z,31.60
2023-04-09T02:52:24.368Z,29.60
2023-04-09T02:53:23.729Z,31.60
2023-04-09T02:54:24.155Z,29.70
2023-04-09T02:55:24.530Z,29.20
2023-04-09T02:56:24.654Z,28.89
2023-04-09T02:57:24.497Z,28
2023-04-09T02:58:24.526Z,30
2023-04-09T02:59:23.947Z,27.70
2023-04-09T03:00:39.970Z,27.60
2023-04-09T03:01:25.289Z,29.29
2023-04-09T03:02:25.341Z,27.5
2023-04-09T03:03:24.756Z,29.10
2023-04-09T03:04:43.182Z,27.39
2023-04-09T03:05:25.880Z,28.39
2023-04-09T03:06:24.236Z,28.79
2023-04-09T03:07:23.804Z,28.5
2023-04-09T03:08:24.613Z,29
2023-04-09T03:09:24.463Z,30.39
2023-04-09T03:10:43.776Z,28.60
2023-04-09T03:11:24.497Z,29.39
2023-04-09T03:12:46.035Z,28.89
2023-04-09T03:13:24.182Z,28.79
2023-04-09T03:14:24.184Z,27.10
2023-04-09T03:15:24.474Z,26.70
2023-04-09T03:16:24.488Z,26.39
2023-04-09T03:17:24.516Z,26.70
2023-04-09T03:18:24.877Z,28.20
2023-04-09T03:19:24.014Z,27.60
2023-04-09T03:20:24.397Z,25.89
2023-04-09T03:21:23.988Z,29.29
2023-04-09T03:22:23.761Z,29.89
2023-04-09T03:23:24.434Z,27.89
2023-04-09T03:24:24.294Z,27.5
2023-04-09T03:26:24.717Z,28
2023-04-09T03:27:24.645Z,26.89
2023-04-09T03:28:24.002Z,26.20
2023-04-09T03:29:24.307Z,25.79
2023-04-09T03:30:24.937Z,24.29
2023-04-09T03:31:24.233Z,24.70
2023-04-09T03:32:24.360Z,25.20
2023-04-09T03:33:24.651Z,24.60
2023-04-09T03:34:24.929Z,24.70
2023-04-09T03:35:24.795Z,24.20
2023-04-09T03:38:24.764Z,26
2023-04-09T03:39:24.945Z,24.60
2023-04-09T03:40:24.601Z,26.70
2023-04-09T03:41:24.176Z,24.5
2023-04-09T03:42:24.117Z,24.29
2023-04-09T03:43:23.690Z,25.39
2023-04-09T03:44:24.619Z,26.29
2023-04-09T03:45:24.281Z,25.60
2023-04-09T03:46:24.335Z,24.89
2023-04-09T03:47:24.270Z,26.5
2023-04-09T03:48:23.967Z,27.79
2023-04-09T03:49:23.686Z,25.5
2023-04-09T03:50:24.224Z,28.10
2023-04-09T03:51:24.054Z,25.39
2023-04-09T03:52:23.891Z,26.29
2023-04-09T03:54:24.007Z,26
2023-04-09T03:55:24.637Z,26.29
2023-04-09T03:56:24.583Z,24.89
2023-04-09T03:57:24.913Z,26.29
2023-04-09T03:58:23.949Z,24.60
2023-04-09T03:59:24.668Z,26
2023-04-09T04:00:25.446Z,24.79
2023-04-09T04:01:24.811Z,26.79
2023-04-09T04:02:24.415Z,25.20
2023-04-09T04:03:25.622Z,25
2023-04-09T04:04:24.231Z,23.5
2023-04-09T04:05:25.071Z,25.79
2023-04-09T04:06:23.833Z,24.20
2023-04-09T04:07:24.870Z,25.10
2023-04-09T04:08:24.757Z,24.60
2023-04-09T04:09:24.481Z,23.60
2023-04-09T04:10:25.252Z,23
2023-04-09T04:11:24.149Z,23.5
2023-04-09T04:12:24.047Z,23.89
2023-04-09T04:15:24.805Z,25.10
2023-04-09T04:16:24.096Z,23.89
2023-04-09T04:17:24.109Z,24.60
2023-04-09T04:18:24.159Z,25.39
2023-04-09T04:19:24.513Z,23.70
2023-04-09T04:20:24.466Z,23.60
2023-04-09T04:21:24.215Z,26
2023-04-09T04:23:24.284Z,25.70
2023-04-09T04:24:24.616Z,25.5
2023-04-09T04:25:26.103Z,23.60
2023-04-09T04:26:25.150Z,25.5
2023-04-09T04:27:26.309Z,24.70
2023-04-09T04:28:24.610Z,24.5
2023-04-09T04:29:24.429Z,25.79
2023-04-09T04:30:24.101Z,26.89
2023-04-09T04:31:23.970Z,23.60
2023-04-09T04:32:24.573Z,24.60
2023-04-09T04:33:24.314Z,25
2023-04-09T04:34:24.037Z,25.10
2023-04-09T04:35:24.959Z,23.89
2023-04-09T04:36:24.356Z,26.60
2023-04-09T04:37:24.089Z,24
2023-04-09T04:38:24.554Z,22.39
2023-04-09T04:39:24.164Z,25
2023-04-09T04:40:24.592Z,24.79
2023-04-09T04:41:23.383Z,24.60
2023-04-09T04:42:24.917Z,23
2023-04-09T04:43:24.754Z,23.79
2023-04-09T04:44:24.827Z,24.29
2023-04-09T04:45:25.958Z,24.10
2023-04-09T04:46:24.350Z,25.70
2023-04-09T04:47:24.779Z,23.39
2023-04-09T04:48:24.385Z,24
2023-04-09T04:49:25.475Z,24.89
2023-04-09T04:50:24.073Z,25
2023-04-09T04:51:24.721Z,23.79
2023-04-09T04:52:24.260Z,23.20
2023-04-09T04:53:24.259Z,24.79
2023-04-09T04:54:24.144Z,25.39
2023-04-09T04:55:24.173Z,25.89
2023-04-09T04:56:24.120Z,23.29
2023-04-09T04:57:24.428Z,23.89
2023-04-09T04:58:24.723Z,25.89
2023-04-09T04:59:24.506Z,25
2023-04-09T05:00:25.233Z,25.60
2023-04-09T05:01:24.142Z,24.79
2023-04-09T05:02:24.654Z,24.70
2023-04-09T05:03:26.132Z,24.20
2023-04-09T05:04:24.890Z,24.89
2023-04-09T05:05:24.438Z,25.60
2023-04-09T05:06:24.864Z,26
2023-04-09T05:07:24.366Z,26.39
2023-04-09T05:08:24.720Z,26.5
2023-04-09T05:09:24.943Z,26.89
2023-04-09T05:10:24.504Z,26.20
2023-04-09T05:12:24.808Z,24
2023-04-09T05:13:39.056Z,26.29
2023-04-09T05:14:24.492Z,26.10
2023-04-09T05:15:38.114Z,24.89
2023-04-09T05:16:24.448Z,28
2023-04-09T05:17:24.515Z,27
2023-04-09T05:18:24.472Z,25.89
2023-04-09T05:19:24.649Z,26.5
2023-04-09T05:20:24.493Z,27
2023-04-09T05:21:24.294Z,27.79
2023-04-09T05:22:24.653Z,27
2023-04-09T05:23:24.398Z,25.10
2023-04-09T05:24:25.073Z,26.39
2023-04-09T05:25:24.278Z,26.5
2023-04-09T05:26:24.932Z,25.89
2023-04-09T05:27:24.468Z,24.89
2023-04-09T05:28:24.353Z,27
2023-04-09T05:29:24.848Z,27.29
2023-04-09T05:30:25.238Z,26
2023-04-09T05:31:24.003Z,30.10
2023-04-09T05:32:24.163Z,30.20
2023-04-09T05:33:24.268Z,27.60
2023-04-09T05:34:23.877Z,27.89
2023-04-09T05:35:23.946Z,28.29
2023-04-09T05:36:24.236Z,27
2023-04-09T05:38:24.883Z,28.5
2023-04-09T05:39:24.486Z,28.79
2023-04-09T05:40:24.847Z,26.60
2023-04-09T05:42:24.219Z,28.29
2023-04-09T05:43:24.356Z,26.70
2023-04-09T05:44:24.046Z,26.89
2023-04-09T05:45:24.631Z,25.89
2023-04-09T05:46:24.302Z,26.10
2023-04-09T05:47:24.556Z,28.89
2023-04-09T05:48:24.478Z,26.79
2023-04-09T05:49:24.391Z,27.79
2023-04-09T05:50:24.306Z,28.79
2023-04-09T05:51:24.746Z,28.5
2023-04-09T05:52:24.539Z,27.10
2023-04-09T05:53:26.564Z,26.89
2023-04-09T05:54:25.387Z,28.5
2023-04-09T05:55:25.041Z,28.39
2023-04-09T05:56:24.208Z,26.70
2023-04-09T05:57:24.774Z,27.89
2023-04-09T05:59:24.996Z,27.60
2023-04-09T06:00:25.830Z,27.20
2023-04-09T06:01:24.729Z,26
2023-04-09T06:02:24.647Z,26.60
2023-04-09T06:03:24.219Z,27.5
2023-04-09T06:04:24.845Z,26.20
2023-04-09T06:05:24.785Z,26.60
2023-04-09T06:06:24.827Z,25.39
2023-04-09T06:07:24.647Z,29.5
2023-04-09T06:08:24.469Z,27.39
2023-04-09T06:09:24.689Z,27.20
2023-04-09T06:10:24.240Z,27.10
2023-04-09T06:11:24.353Z,26.60
2023-04-09T06:12:24.900Z,26.20
2023-04-09T06:13:23.988Z,26.60
2023-04-09T06:14:25.055Z,25.5
2023-04-09T06:15:24.490Z,25.70
2023-04-09T06:16:25.140Z,25.29
2023-04-09T06:17:24.923Z,25.20
2023-04-09T06:18:24.782Z,25.5
2023-04-09T06:19:24.518Z,26.29
2023-04-09T06:20:24.959Z,25.89
2023-04-09T06:21:24.715Z,26.10
2023-04-09T06:22:24.515Z,25.70
2023-04-09T06:23:24.267Z,25.5
2023-04-09T06:24:24.963Z,26.5
2023-04-09T06:25:24.760Z,24.20
2023-04-09T06:26:24.553Z,25.39
2023-04-09T06:27:24.784Z,24.89
2023-04-09T06:28:24.291Z,26.10
2023-04-09T06:29:24.639Z,25.70
2023-04-09T06:30:25.285Z,26.20
2023-04-09T06:31:24.061Z,26.60
2023-04-09T06:32:25.092Z,28.10
2023-04-09T06:33:24.249Z,25.60
2023-04-09T06:34:24.116Z,26.20
2023-04-09T06:35:24.149Z,25.70
2023-04-09T06:36:25.376Z,25.79
2023-04-09T06:37:24.915Z,25.60
2023-04-09T06:38:24.799Z,27.89
2023-04-09T06:39:25.006Z,27.20
2023-04-09T06:40:25.440Z,26.39
2023-04-09T06:42:24.565Z,27.10
2023-04-09T06:43:24.134Z,26.20
2023-04-09T06:44:24.536Z,27.70
2023-04-09T06:45:24.816Z,25.89
2023-04-09T06:46:24.970Z,26.39
2023-04-09T06:47:24.845Z,27.79
2023-04-09T06:48:24.344Z,28.10
2023-04-09T06:49:24.640Z,26.70
2023-04-09T06:50:24.883Z,27.89
2023-04-09T06:51:24.625Z,27.10
2023-04-09T06:52:24.712Z,26.20
2023-04-09T06:53:24.648Z,27.39
2023-04-09T06:54:25.010Z,29.5
2023-04-09T06:55:24.440Z,27.39
2023-04-09T06:56:24.799Z,30.70
2023-04-09T06:57:25.049Z,27.70
2023-04-09T06:58:24.280Z,27.89
2023-04-09T07:00:25.673Z,27.60
2023-04-09T07:01:25.109Z,28.70
2023-04-09T07:02:25.399Z,30.60
2023-04-09T07:03:24.818Z,27.89
2023-04-09T07:04:24.251Z,29.39
2023-04-09T07:05:24.884Z,27.70
2023-04-09T07:06:25.260Z,26.60
2023-04-09T07:07:25.958Z,27.89
2023-04-09T07:08:24.478Z,25.79
2023-04-09T07:09:25.448Z,27.89
2023-04-09T07:10:24.843Z,27.79
2023-04-09T07:11:24.422Z,25.70
2023-04-09T07:12:25.169Z,24.89
2023-04-09T07:13:23.229Z,25.79
2023-04-09T07:14:24.884Z,25.39
2023-04-09T07:15:24.346Z,28.60
2023-04-09T07:16:24.518Z,28
2023-04-09T07:17:24.504Z,26.5
2023-04-09T07:18:24.443Z,27.39
2023-04-09T07:19:24.583Z,24.60
2023-04-09T07:20:29.715Z,25
2023-04-09T07:21:25.896Z,24.39
2023-04-09T07:22:24.626Z,25.29
2023-04-09T07:23:24.669Z,26.39
2023-04-09T07:24:24.431Z,24.10
2023-04-09T07:25:25.374Z,24.60
2023-04-09T07:26:24.668Z,24.89
2023-04-09T07:27:24.618Z,26.39
2023-04-09T07:28:24.108Z,25.20
2023-04-09T07:29:25.746Z,24.29
2023-04-09T07:30:29.873Z,24.70
2023-04-09T07:31:24.287Z,23.5
2023-04-09T07:32:24.497Z,23.89
2023-04-09T07:33:24.550Z,23.5
2023-04-09T07:34:24.425Z,22.10
2023-04-09T07:35:24.729Z,21.79
2023-04-09T07:37:24.940Z,20.60
2023-04-09T07:38:24.440Z,20.89
2023-04-09T07:39:25.220Z,21.5
2023-04-09T07:40:24.172Z,19.20
2023-04-09T07:41:24.554Z,22
2023-04-09T07:42:24.417Z,20.10
2023-04-09T07:43:24.742Z,18.60
2023-04-09T07:44:24.671Z,19.70
2023-04-09T07:45:25.175Z,18.89
2023-04-09T07:46:24.628Z,17.89
2023-04-09T07:47:24.339Z,18.5
2023-04-09T07:48:24.361Z,17.29
2023-04-09T07:49:24.445Z,18.10
2023-04-09T07:50:25.356Z,17.29
2023-04-09T07:51:24.613Z,17.70
2023-04-09T07:52:24.341Z,18.39
2023-04-09T07:53:24.179Z,17.70
2023-04-09T07:54:24.382Z,18.70
2023-04-09T07:55:24.603Z,19.39
2023-04-09T07:56:24.461Z,17.89
2023-04-09T07:57:24.605Z,18.29
2023-04-09T07:58:24.730Z,18.5
2023-04-09T07:59:24.467Z,16.20
2023-04-09T08:00:25.935Z,15
2023-04-09T08:01:24.474Z,14.89
2023-04-09T08:02:24.640Z,14.19
2023-04-09T08:03:24.338Z,14.60
2023-04-09T08:04:23.786Z,14.80
2023-04-09T08:05:24.590Z,12.39
2023-04-09T08:06:24.131Z,13
2023-04-09T08:07:24.094Z,13.69
2023-04-09T08:08:24.493Z,13.39
2023-04-09T08:09:24.025Z,14.80
2023-04-09T08:10:24.897Z,13.60
2023-04-09T08:11:25.164Z,13.30
2023-04-09T08:12:24.829Z,14.89
2023-04-09T08:13:23.963Z,13.39
2023-04-09T08:14:25.134Z,12.10
2023-04-09T08:15:25.310Z,12.30
2023-04-09T08:16:24.669Z,13.10
2023-04-09T08:17:24.277Z,13.30
2023-04-09T08:18:24.298Z,10.69
2023-04-09T08:19:24.118Z,11.5
2023-04-09T08:20:24.599Z,10.60
2023-04-09T08:21:24.313Z,10.39
2023-04-09T08:22:24.784Z,11.60
2023-04-09T08:23:25.532Z,10.19
2023-04-09T08:24:24.712Z,8.600
2023-04-09T08:25:24.507Z,8.100
2023-04-09T08:26:23.695Z,7.199
2023-04-09T08:27:24.933Z,7.800
2023-04-09T08:28:24.439Z,10.30
2023-04-09T08:29:24.610Z,8.699
2023-04-09T08:30:24.746Z,10.5
2023-04-09T08:31:23.950Z,8.300
2023-04-09T08:32:24.221Z,7.5
2023-04-09T08:33:24.547Z,7.099
2023-04-09T08:34:24.428Z,7.5
2023-04-09T08:35:24.349Z,7.199
2023-04-09T08:36:24.241Z,7.400
2023-04-09T08:37:24.112Z,6.5
2023-04-09T08:38:24.129Z,7
2023-04-09T08:39:24.584Z,6.5
2023-04-09T08:40:24.546Z,7.199
2023-04-09T08:41:24.464Z,6.800
2023-04-09T08:42:24.009Z,6.5
2023-04-09T08:43:27.017Z,6.900
2023-04-09T08:44:25.173Z,7.800
2023-04-09T08:45:25.666Z,6.900
2023-04-09T08:46:24.323Z,7.5
2023-04-09T08:47:25.330Z,6.699
2023-04-09T08:48:24.790Z,7.400
2023-04-09T08:49:24.078Z,7.099
2023-04-09T08:50:24.101Z,7.199
2023-04-09T08:51:24.299Z,6.699
2023-04-09T08:52:24.331Z,7.300
2023-04-09T08:53:23.976Z,6.800
2023-04-09T08:54:24.533Z,6.900
2023-04-09T08:56:24.475Z,7.300
2023-04-09T08:57:24.064Z,5.800
2023-04-09T08:58:24.401Z,6.300
2023-04-09T08:59:24.419Z,6.199
2023-04-09T09:00:25.758Z,6.599
2023-04-09T09:01:24.041Z,6.300
2023-04-09T09:02:24.676Z,6.199
2023-04-09T09:03:23.914Z,6.400
2023-04-09T09:04:24.200Z,6.199
2023-04-09T09:05:24.360Z,6.699
2023-04-09T09:06:24.856Z,5.599
2023-04-09T09:07:25.243Z,6.300
2023-04-09T09:08:24.061Z,6.5
2023-04-09T09:09:24.447Z,6.199
2023-04-09T09:10:24.603Z,6
2023-04-09T09:11:24.366Z,6.199
2023-04-09T09:12:24.975Z,6.400
2023-04-09T09:13:24.720Z,6.199
2023-04-09T09:14:23.867Z,7.400
2023-04-09T09:15:23.983Z,7.099
2023-04-09T09:16:24.628Z,6.400
2023-04-09T09:17:25.087Z,6.300
2023-04-09T09:18:25.007Z,6.900
2023-04-09T09:19:25.084Z,7.400
2023-04-09T09:20:24.727Z,8.300
2023-04-09T09:21:24.844Z,8.199
2023-04-09T09:22:24.647Z,7.800
2023-04-09T09:23:24.496Z,7.900
2023-04-09T09:24:23.854Z,7.800
2023-04-09T09:25:24.332Z,7.400
2023-04-09T09:26:24.615Z,8
2023-04-09T09:27:24.722Z,7.800
2023-04-09T09:28:24.626Z,6.400
2023-04-09T09:29:24.284Z,7.300
2023-04-09T09:30:24.878Z,6
2023-04-09T09:31:24.166Z,6.5
2023-04-09T09:32:24.458Z,6.099
2023-04-09T09:33:24.083Z,6.900
2023-04-09T09:34:24.460Z,6.300
2023-04-09T09:35:25.069Z,7.699
2023-04-09T09:36:24.459Z,7.099
2023-04-09T09:37:24.537Z,6.900
2023-04-09T09:38:25.089Z,7.900
2023-04-09T09:39:24.792Z,8.300
2023-04-09T09:40:25.497Z,8.100
2023-04-09T09:41:24.832Z,8.800
2023-04-09T09:42:24.624Z,8.100
2023-04-09T09:43:24.468Z,7.5
2023-04-09T09:44:23.994Z,10
2023-04-09T09:45:24.959Z,7.699
2023-04-09T09:46:24.596Z,8
2023-04-09T09:47:24.264Z,7.5
2023-04-09T09:48:27.098Z,8.199
2023-04-09T09:49:24.737Z,7.5
2023-04-09T09:50:24.234Z,9.300
2023-04-09T09:51:29.305Z,8.5
2023-04-09T09:52:23.804Z,8.199
2023-04-09T09:53:23.816Z,8.399
2023-04-09T09:54:24.987Z,10.10
2023-04-09T09:55:24.326Z,8.800
2023-04-09T09:57:24.866Z,8.5
2023-04-09T09:59:24.802Z,9.199
2023-04-09T10:00:25.931Z,8.199
2023-04-09T10:01:32.904Z,10.19
2023-04-09T10:02:24.889Z,9.600
2023-04-09T10:03:25.598Z,8.600
2023-04-09T10:04:24.057Z,8.5
2023-04-09T10:05:38.287Z,8.600
2023-04-09T10:06:24.323Z,8.100
2023-04-09T10:07:24.542Z,8.199
2023-04-09T10:08:24.729Z,8.399
2023-04-09T10:09:24.344Z,7.699
2023-04-09T10:10:24.417Z,8.600
2023-04-09T10:11:24.241Z,8.399
2023-04-09T10:12:23.939Z,9
2023-04-09T10:13:23.833Z,9.100
2023-04-09T10:14:24.300Z,9.699
2023-04-09T10:15:24.868Z,9.199
2023-04-09T10:16:24.239Z,9.100
2023-04-09T10:17:24.062Z,8.5
2023-04-09T10:18:24.298Z,8.899
2023-04-09T10:19:24.744Z,9
2023-04-09T10:20:24.420Z,8.800
2023-04-09T10:21:24.289Z,9.100
2023-04-09T10:22:24.040Z,9.300
2023-04-09T10:23:23.764Z,11.5
2023-04-09T10:24:24.111Z,9.5
2023-04-09T10:25:24.674Z,10.69
2023-04-09T10:26:24.842Z,15.80
2023-04-09T10:27:25.072Z,15.39
2023-04-09T10:28:23.444Z,14.39
2023-04-09T10:29:24.547Z,10.39
2023-04-09T10:30:25.268Z,10.10
2023-04-09T10:31:24.298Z,8.800
2023-04-09T10:32:24.570Z,8.699
2023-04-09T10:33:24.384Z,9.5
2023-04-09T10:34:24.091Z,8.699
2023-04-09T10:35:23.788Z,9.100
2023-04-09T10:36:25.149Z,9.600
2023-04-09T10:37:24.530Z,8.199
2023-04-09T10:38:24.445Z,9.800
2023-04-09T10:39:24.548Z,8.100
2023-04-09T10:40:25.116Z,8.600
2023-04-09T10:41:24.907Z,8.699
2023-04-09T10:42:25.154Z,9.800
2023-04-09T10:43:25.613Z,9.5
2023-04-09T10:44:24.530Z,8.5
2023-04-09T10:45:25.122Z,9.899
2023-04-09T10:46:24.861Z,10.5
2023-04-09T10:47:24.721Z,9
2023-04-09T10:48:24.709Z,9.399
2023-04-09T10:49:24.612Z,9.300
2023-04-09T10:50:25.734Z,9.699
2023-04-09T10:51:24.723Z,8.300
2023-04-09T10:52:25.314Z,8
2023-04-09T10:53:24.974Z,9.300
2023-04-09T10:54:25.122Z,8.699
2023-04-09T10:55:24.183Z,10.5
2023-04-09T10:56:24.640Z,10.19
2023-04-09T10:57:24.094Z,10.10
2023-04-09T10:58:24.142Z,9.100
2023-04-09T10:59:23.431Z,9.5
2023-04-09T11:00:25.820Z,9.199
2023-04-09T11:01:23.880Z,9.5
2023-04-09T11:02:24.783Z,8.199
2023-04-09T11:03:25.100Z,8.399
2023-04-09T11:04:24.937Z,8.199
2023-04-09T11:05:24.814Z,8.899
2023-04-09T11:06:23.818Z,8.800
2023-04-09T11:07:25.281Z,8.5
2023-04-09T11:08:24.846Z,8.399
2023-04-09T11:09:23.998Z,7.199
2023-04-09T11:10:24.578Z,6.800
2023-04-09T11:11:24.498Z,6.699
2023-04-09T11:12:24.230Z,6.900
2023-04-09T11:13:24.572Z,7.099
2023-04-09T11:14:24.610Z,7.300
2023-04-09T11:15:24.637Z,7.400
2023-04-09T11:16:27.900Z,7.199
2023-04-09T11:17:24.552Z,6.699
2023-04-09T11:18:24.872Z,6.099
2023-04-09T11:20:24.792Z,6.400
2023-04-09T11:21:24.404Z,6.300
2023-04-09T11:22:25.503Z,5.699
2023-04-09T11:23:24.907Z,5.800
2023-04-09T11:25:24.605Z,5.400
2023-04-09T11:26:24.395Z,7
2023-04-09T11:27:24.559Z,6.400
2023-04-09T11:28:24.252Z,5.699
2023-04-09T11:29:24.359Z,5.400
2023-04-09T11:30:24.601Z,5.199
2023-04-09T11:31:24.174Z,5.400
2023-04-09T11:32:24.405Z,5.800
2023-04-09T11:33:24.049Z,5
2023-04-09T11:34:23.883Z,4.800
2023-04-09T11:35:24.514Z,5.5
2023-04-09T11:36:25.266Z,5.199
2023-04-09T11:37:25.456Z,5.300
2023-04-09T11:38:24.702Z,5.599
2023-04-09T11:39:25.061Z,6.5
2023-04-09T11:40:24.413Z,6.699
2023-04-09T11:41:24.072Z,5.900
2023-04-09T11:43:24.539Z,5.699
2023-04-09T11:44:24.230Z,5.599
2023-04-09T11:45:24.577Z,6.199
2023-04-09T11:46:24.349Z,5.800
2023-04-09T11:47:24.641Z,5.300
2023-04-09T11:48:24.175Z,5.199
2023-04-09T11:49:24.632Z,5.400
2023-04-09T11:50:24.694Z,5.599
2023-04-09T11:51:24.368Z,5.300
2023-04-09T11:52:24.780Z,5.800
2023-04-09T11:53:24.089Z,5.599
2023-04-09T11:54:24.854Z,6.099
2023-04-09T11:55:24.472Z,5.800
2023-04-09T11:57:24.243Z,5.300
2023-04-09T11:58:24.072Z,5.199
2023-04-09T11:59:24.995Z,6.199
2023-04-09T12:00:25.391Z,5.099
2023-04-09T12:01:24.164Z,6.099
2023-04-09T12:02:24.723Z,5.699
2023-04-09T12:03:25.169Z,6.599
2023-04-09T12:04:24.541Z,6.300
2023-04-09T12:05:24.910Z,6.900
2023-04-09T12:06:24.252Z,5.300
2023-04-09T12:07:25.152Z,6.599
2023-04-09T12:08:25.180Z,5.900
2023-04-09T12:09:25.011Z,6.300
2023-04-09T12:10:25.508Z,6.199
2023-04-09T12:11:24.613Z,5.300
2023-04-09T12:12:24.317Z,5.599
2023-04-09T12:13:24.470Z,5.5
2023-04-09T12:14:24.604Z,5.400
2023-04-09T12:15:24.876Z,7.599
2023-04-09T12:16:24.869Z,5.5
2023-04-09T12:17:24.902Z,5.599
2023-04-09T12:18:24.470Z,5.300
2023-04-09T12:19:24.732Z,6.099
2023-04-09T12:22:23.793Z,7.099
2023-04-09T12:23:24.765Z,5.400
2023-04-09T12:24:24.552Z,5.199
2023-04-09T12:26:24.823Z,5.300
2023-04-09T12:27:24.641Z,5.800
2023-04-09T12:28:24.692Z,6.099
2023-04-09T12:29:24.533Z,5.5
2023-04-09T12:30:24.822Z,5.699
2023-04-09T12:31:23.286Z,5.199
2023-04-09T12:32:24.437Z,5.5
2023-04-09T12:34:24.378Z,5.300
2023-04-09T12:35:24.163Z,5.699
2023-04-09T12:36:24.451Z,5.800
2023-04-09T12:37:24.077Z,5.699
2023-04-09T12:38:24.064Z,5.5
2023-04-09T12:39:24.685Z,5.800
2023-04-09T12:41:25.176Z,6
2023-04-09T12:42:24.778Z,5.699
2023-04-09T12:43:24.471Z,6.199
2023-04-09T12:44:24.484Z,6
2023-04-09T12:45:24.350Z,6.900
2023-04-09T12:46:24.543Z,6
2023-04-09T12:47:25.520Z,5.699
2023-04-09T12:48:24.742Z,7
2023-04-09T12:49:25.242Z,6.400
2023-04-09T12:50:26.056Z,6.599
2023-04-09T12:51:26.014Z,5.400
2023-04-09T12:52:26.141Z,5.699
2023-04-09T12:53:25.855Z,5.300
2023-04-09T12:54:45.455Z,5.699
2023-04-09T12:55:24.490Z,8.100
2023-04-09T12:56:24.554Z,6.5
2023-04-09T12:57:24.344Z,5.400
2023-04-09T12:58:25.231Z,5.099
2023-04-09T12:59:24.315Z,5.400
2023-04-09T13:00:25.340Z,5.599
2023-04-09T13:01:24.193Z,5.900
2023-04-09T13:02:24.837Z,5.599
2023-04-09T13:03:24.696Z,5.300
2023-04-09T13:05:29.349Z,6.199
2023-04-09T13:06:24.681Z,5.5
2023-04-09T13:07:24.465Z,5.599
2023-04-09T13:08:24.189Z,6.199
2023-04-09T13:09:24.528Z,4.900
2023-04-09T13:10:24.696Z,5.300
2023-04-09T13:11:24.737Z,5.5
2023-04-09T13:12:24.993Z,5.400
2023-04-09T13:14:24.297Z,7
2023-04-09T13:15:25.172Z,6.099
2023-04-09T13:16:24.207Z,5.699
2023-04-09T13:17:24.147Z,5.900
2023-04-09T13:18:24.107Z,5.400
2023-04-09T13:19:24.473Z,5.699
2023-04-09T13:21:23.645Z,5.199
2023-04-09T13:22:24.011Z,5.800
2023-04-09T13:23:23.804Z,5.5
2023-04-09T13:24:25.005Z,5.699
2023-04-09T13:25:24.005Z,5.800
2023-04-09T13:26:24.069Z,6
2023-04-09T13:27:24.979Z,5.900
2023-04-09T13:28:23.982Z,7.300
2023-04-09T13:29:23.526Z,6.099
2023-04-09T13:30:24.443Z,5.800
2023-04-09T13:31:24.076Z,5.5
2023-04-09T13:32:23.677Z,6.599
2023-04-09T13:33:24.226Z,6.300
2023-04-09T13:35:29.588Z,7.599
2023-04-09T13:36:24.783Z,5.5
2023-04-09T13:38:24.410Z,6.099
2023-04-09T13:41:24.428Z,6.599
2023-04-09T13:42:24.836Z,5.800
2023-04-09T13:43:24.648Z,7.199